Time;durP1;ratioP1;P1;durP2;ratioP2;P2;SDS_P1;SDS_P2;PMS_P1;PMS_P2;Temp;Humidity;BMP_temperature;BMP_pressure;BME280_temperature;BME280_humidity;BME280_pressure;Samples;Min_cycle;Max_cycle;Signal;HPM_P1;HPM_P2
2023/05/07 00:01:12;;;;;;;3.22;1.50;;;16.70;99.90;;;;;;5051920;28;20021;-52
2023/05/07 00:03:38;;;;;;;4.43;1.80;;;16.80;99.90;;;;;;5053075;28;20025;-52
2023/05/07 00:06:04;;;;;;;2.15;1.70;;;16.60;99.90;;;;;;5052586;28;20021;-53
2023/05/07 00:08:30;;;;;;;4.72;2.28;;;16.60;99.90;;;;;;5052195;28;20025;-53
2023/05/07 00:10:55;;;;;;;3.08;1.80;;;16.70;99.90;;;;;;5052262;28;20035;-53
2023/05/07 00:13:21;;;;;;;3.80;1.67;;;16.60;99.90;;;;;;5052417;28;20059;-51
2023/05/07 00:15:46;;;;;;;1.90;1.80;;;16.70;99.90;;;;;;5052424;28;20485;-53
2023/05/07 00:18:12;;;;;;;2.13;1.60;;;16.70;99.90;;;;;;5052139;28;20033;-54
2023/05/07 00:20:37;;;;;;;1.88;1.75;;;16.60;99.90;;;;;;5051764;28;20032;-53
2023/05/07 00:23:02;;;;;;;2.03;1.67;;;16.60;99.90;;;;;;5052063;28;20025;-50
2023/05/07 00:25:28;;;;;;;2.20;2.00;;;16.70;99.90;;;;;;5052025;28;20029;-49
2023/05/07 00:27:53;;;;;;;1.50;1.45;;;16.60;99.90;;;;;;5051400;28;20040;-51
2023/05/07 00:30:19;;;;;;;4.47;1.92;;;16.60;99.90;;;;;;5051687;28;20662;-51
2023/05/07 00:32:45;;;;;;;3.55;1.73;;;16.60;99.90;;;;;;5052139;28;20048;-50
2023/05/07 00:35:11;;;;;;;3.28;1.70;;;16.60;99.90;;;;;;5051837;28;20029;-49
2023/05/07 00:37:36;;;;;;;2.10;1.88;;;16.60;99.90;;;;;;5048624;28;20115;-56
2023/05/07 00:40:04;;;;;;;2.42;1.83;;;16.50;99.90;;;;;;5051952;28;20064;-50
2023/05/07 00:42:32;;;;;;;3.45;1.85;;;16.40;99.90;;;;;;5051505;28;20083;-52
2023/05/07 00:44:58;;;;;;;3.97;2.13;;;16.40;99.90;;;;;;5051626;28;20021;-53
2023/05/07 00:47:23;;;;;;;2.00;1.75;;;16.40;99.90;;;;;;5051390;28;20086;-50
2023/05/07 00:49:49;;;;;;;2.13;1.92;;;16.30;99.90;;;;;;5050269;28;20027;-55
2023/05/07 00:52:17;;;;;;;2.38;1.60;;;16.30;99.90;;;;;;5051355;28;20092;-53
2023/05/07 00:54:42;;;;;;;3.80;1.80;;;16.20;99.90;;;;;;5050268;28;20397;-54
2023/05/07 00:57:11;;;;;;;3.45;1.80;;;16.20;99.90;;;;;;5051471;28;20326;-50
2023/05/07 00:59:37;;;;;;;2.45;2.00;;;16.10;99.90;;;;;;5050791;28;20025;-53
2023/05/07 01:02:02;;;;;;;2.25;1.90;;;16.10;99.90;;;;;;5051490;28;20450;-49
2023/05/07 01:04:28;;;;;;;4.43;2.10;;;16.10;99.90;;;;;;5051567;28;20084;-52
2023/05/07 01:06:58;;;;;;;3.85;1.98;;;16.10;99.90;;;;;;5051087;28;20021;-54
2023/05/07 01:09:25;;;;;;;4.20;2.10;;;16.00;99.90;;;;;;5051153;28;20489;-52
2023/05/07 01:11:51;;;;;;;2.92;2.08;;;16.00;99.90;;;;;;5049926;28;20029;-53
2023/05/07 01:14:17;;;;;;;3.70;1.80;;;16.00;99.90;;;;;;5051191;28;20032;-52
2023/05/07 01:16:43;;;;;;;3.97;2.40;;;16.00;99.90;;;;;;5049935;28;20028;-49
2023/05/07 01:19:10;;;;;;;4.80;1.90;;;16.00;99.90;;;;;;5051492;28;20025;-54
2023/05/07 01:21:37;;;;;;;2.92;1.85;;;15.90;99.90;;;;;;5051285;28;20503;-52
2023/05/07 01:24:03;;;;;;;6.93;1.77;;;16.00;99.90;;;;;;5051431;28;20439;-50
2023/05/07 01:26:29;;;;;;;8.23;1.92;;;15.90;99.90;;;;;;5050853;28;20104;-50
2023/05/07 01:28:54;;;;;;;3.95;1.70;;;16.00;99.90;;;;;;5051567;28;20441;-48
2023/05/07 01:31:20;;;;;;;5.72;2.50;;;16.00;99.90;;;;;;5050703;28;20029;-55
2023/05/07 01:33:48;;;;;;;2.05;1.83;;;15.90;99.90;;;;;;5051209;28;20116;-52
2023/05/07 01:36:15;;;;;;;3.70;2.15;;;15.90;99.90;;;;;;5050725;28;20017;-54
2023/05/07 01:38:41;;;;;;;2.33;2.13;;;15.90;99.90;;;;;;5051102;28;20029;-54
2023/05/07 01:41:07;;;;;;;2.13;1.83;;;15.80;99.90;;;;;;5050754;28;20040;-53
2023/05/07 01:43:33;;;;;;;2.70;1.73;;;15.80;99.90;;;;;;5050898;28;20415;-52
2023/05/07 01:46:01;;;;;;;4.03;1.88;;;15.80;99.90;;;;;;5049908;28;20040;-50
2023/05/07 01:48:27;;;;;;;3.03;1.90;;;15.80;99.90;;;;;;5051091;28;20051;-50
2023/05/07 01:50:52;;;;;;;3.55;2.00;;;15.80;99.90;;;;;;5054095;28;20077;-49
2023/05/07 01:53:18;;;;;;;2.75;2.00;;;15.80;99.90;;;;;;5054518;28;20507;-53
2023/05/07 01:55:43;;;;;;;2.17;2.05;;;15.70;99.90;;;;;;5054501;28;20411;-51
2023/05/07 01:58:09;;;;;;;3.08;2.15;;;15.70;99.90;;;;;;5054136;28;20108;-56
2023/05/07 02:00:34;;;;;;;4.25;2.40;;;15.70;99.90;;;;;;5053519;28;20523;-55
2023/05/07 02:03:00;;;;;;;5.50;2.42;;;15.70;99.90;;;;;;5054649;28;20029;-52
2023/05/07 02:05:26;;;;;;;3.25;2.30;;;15.70;99.90;;;;;;5054071;28;20040;-51
2023/05/07 02:07:51;;;;;;;2.70;2.40;;;15.70;99.90;;;;;;5053672;28;20017;-53
2023/05/07 02:10:16;;;;;;;5.95;2.75;;;15.70;99.90;;;;;;5052606;28;20047;-55
2023/05/07 02:12:42;;;;;;;6.40;2.10;;;15.60;99.90;;;;;;5054176;28;20055;-50
2023/05/07 02:15:08;;;;;;;4.97;1.73;;;15.60;99.90;;;;;;5054125;28;20033;-53
2023/05/07 02:17:34;;;;;;;2.22;2.13;;;15.60;99.90;;;;;;5053463;28;20025;-56
2023/05/07 02:19:59;;;;;;;3.30;2.00;;;15.60;99.90;;;;;;5053972;28;20036;-52
2023/05/07 02:22:25;;;;;;;2.33;1.88;;;15.60;99.90;;;;;;5052618;28;20476;-51
2023/05/07 02:24:51;;;;;;;2.75;2.15;;;15.60;99.90;;;;;;5053849;28;20036;-54
2023/05/07 02:27:16;;;;;;;1.90;1.80;;;15.60;99.90;;;;;;5053255;28;20029;-53
2023/05/07 02:29:42;;;;;;;4.00;1.88;;;15.60;99.90;;;;;;5053727;28;20021;-50
2023/05/07 02:32:07;;;;;;;2.88;2.08;;;15.60;99.90;;;;;;5053376;28;20032;-49
2023/05/07 02:34:33;;;;;;;3.30;2.17;;;15.70;99.90;;;;;;5053476;28;20033;-50
2023/05/07 02:36:58;;;;;;;2.42;2.20;;;15.60;99.90;;;;;;5053066;28;20116;-52
2023/05/07 02:39:24;;;;;;;2.67;2.35;;;15.70;99.90;;;;;;5053542;28;20029;-51
2023/05/07 02:41:50;;;;;;;6.63;2.10;;;15.60;99.90;;;;;;5053183;28;20112;-50
2023/05/07 02:44:15;;;;;;;2.88;2.22;;;15.70;99.90;;;;;;5053042;28;20044;-53
2023/05/07 02:46:41;;;;;;;13.98;3.25;;;15.70;99.90;;;;;;5053114;28;20040;-51
2023/05/07 02:49:06;;;;;;;2.72;1.92;;;15.70;99.90;;;;;;5051985;28;20401;-53
2023/05/07 02:51:32;;;;;;;2.75;1.90;;;15.60;99.90;;;;;;5052966;28;20025;-52
2023/05/07 02:53:57;;;;;;;3.50;2.60;;;15.60;99.90;;;;;;5053275;28;20103;-52
2023/05/07 02:56:23;;;;;;;3.00;1.90;;;15.60;99.90;;;;;;5051727;28;20040;-51
2023/05/07 02:58:48;;;;;;;2.70;2.00;;;15.70;99.90;;;;;;5053505;28;20033;-50
2023/05/07 03:01:14;;;;;;;4.18;2.03;;;15.70;99.90;;;;;;5051389;28;20550;-51
2023/05/07 03:03:40;;;;;;;2.20;2.00;;;15.70;99.90;;;;;;5053316;28;20032;-50
2023/05/07 03:06:06;;;;;;;4.28;2.03;;;15.70;99.90;;;;;;5053050;28;20560;-53
2023/05/07 03:08:32;;;;;;;3.85;2.28;;;15.70;99.90;;;;;;5053026;28;20021;-51
2023/05/07 03:10:58;;;;;;;3.42;2.13;;;15.60;99.90;;;;;;5052614;28;20032;-51
2023/05/07 03:13:23;;;;;;;5.43;2.22;;;15.60;99.90;;;;;;5053038;28;20489;-52
2023/05/07 03:15:49;;;;;;;4.50;2.15;;;15.60;99.90;;;;;;5052870;28;20033;-51
2023/05/07 03:18:14;;;;;;;2.25;2.10;;;15.60;99.90;;;;;;5052495;28;20037;-51
2023/05/07 03:20:40;;;;;;;2.58;2.30;;;15.60;99.90;;;;;;5052571;28;20108;-54
2023/05/07 03:23:05;;;;;;;2.72;2.28;;;15.60;99.90;;;;;;5051368;28;20542;-50
2023/05/07 03:25:32;;;;;;;8.23;2.33;;;15.60;99.90;;;;;;5052639;28;20025;-52
2023/05/07 03:27:57;;;;;;;3.58;2.00;;;15.60;99.90;;;;;;5052370;28;20033;-51
2023/05/07 03:30:23;;;;;;;2.47;2.13;;;15.50;99.90;;;;;;5051154;28;20036;-51
2023/05/07 03:32:49;;;;;;;5.05;2.58;;;15.50;99.90;;;;;;5052478;28;20532;-51
2023/05/07 03:35:14;;;;;;;3.58;2.28;;;15.50;99.90;;;;;;5052413;28;20071;-51
2023/05/07 03:37:40;;;;;;;4.53;2.42;;;15.50;99.90;;;;;;5052297;28;20048;-49
2023/05/07 03:40:07;;;;;;;5.38;2.47;;;15.50;99.90;;;;;;5052460;28;20041;-49
2023/05/07 03:42:33;;;;;;;2.20;2.10;;;15.50;99.90;;;;;;5051999;28;20542;-53
2023/05/07 03:44:58;;;;;;;4.45;2.03;;;15.50;99.90;;;;;;5052166;28;20024;-50
2023/05/07 03:47:24;;;;;;;3.83;3.25;;;15.50;99.90;;;;;;5052135;28;20025;-48
2023/05/07 03:49:50;;;;;;;4.93;2.25;;;15.50;99.90;;;;;;5052075;28;20427;-53
2023/05/07 03:52:16;;;;;;;7.60;3.40;;;15.40;99.90;;;;;;5051913;28;20053;-54
2023/05/07 03:54:41;;;;;;;2.47;2.30;;;15.50;99.90;;;;;;5052068;28;20056;-56
2023/05/07 03:57:07;;;;;;;3.55;2.50;;;15.40;99.90;;;;;;5051813;28;20503;-54
2023/05/07 03:59:32;;;;;;;4.47;2.58;;;15.40;99.90;;;;;;5051014;28;20029;-53
2023/05/07 04:01:58;;;;;;;3.15;2.33;;;15.30;99.90;;;;;;5051917;28;20035;-54
2023/05/07 04:04:24;;;;;;;4.07;2.38;;;15.30;99.90;;;;;;5051829;28;20028;-58
2023/05/07 04:06:49;;;;;;;8.30;2.58;;;15.40;99.90;;;;;;5050818;28;20504;-51
2023/05/07 04:09:15;;;;;;;2.53;2.33;;;15.40;99.90;;;;;;5051920;28;20028;-51
2023/05/07 04:11:40;;;;;;;2.20;2.05;;;15.30;99.90;;;;;;5050989;28;20504;-55
2023/05/07 04:14:06;;;;;;;2.70;2.22;;;15.30;99.90;;;;;;5051871;28;20045;-50
2023/05/07 04:16:31;;;;;;;3.20;2.42;;;15.30;99.90;;;;;;5051374;28;20122;-51
2023/05/07 04:18:57;;;;;;;2.63;2.30;;;15.40;99.90;;;;;;5052036;28;20021;-49
2023/05/07 04:21:22;;;;;;;3.05;2.03;;;15.30;99.90;;;;;;5051583;28;20048;-50
2023/05/07 04:23:49;;;;;;;2.40;2.20;;;15.30;99.90;;;;;;5051709;28;20060;-49
2023/05/07 04:26:15;;;;;;;2.42;2.33;;;15.30;99.90;;;;;;5051388;28;20389;-51
2023/05/07 04:28:40;;;;;;;7.35;2.63;;;15.30;99.90;;;;;;5050562;28;20037;-54
2023/05/07 04:31:06;;;;;;;6.18;2.80;;;15.30;99.90;;;;;;5051300;28;20017;-51
2023/05/07 04:33:32;;;;;;;2.47;1.92;;;15.30;99.90;;;;;;5051630;28;20423;-47
2023/05/07 04:36:02;;;;;;;3.78;2.95;;;15.30;99.90;;;;;;5051590;28;20024;-51
2023/05/07 04:38:29;;;;;;;4.32;2.13;;;15.30;99.90;;;;;;5051148;28;20033;-52
2023/05/07 04:40:54;;;;;;;2.67;2.42;;;15.30;99.90;;;;;;5050304;28;20020;-51
2023/05/07 04:43:20;;;;;;;8.05;2.63;;;15.30;99.90;;;;;;5051615;28;20112;-51
2023/05/07 04:45:46;;;;;;;2.30;2.20;;;15.30;99.90;;;;;;5051291;28;20110;-52
2023/05/07 04:48:11;;;;;;;2.45;2.25;;;15.30;99.90;;;;;;5050983;28;20030;-54
2023/05/07 04:50:37;;;;;;;2.30;2.10;;;15.20;99.90;;;;;;5051022;28;20036;-51
2023/05/07 04:53:02;;;;;;;2.75;2.53;;;15.20;99.90;;;;;;5051330;28;20020;-53
2023/05/07 04:55:28;;;;;;;3.53;2.50;;;15.30;99.90;;;;;;5051305;28;20021;-51
2023/05/07 04:57:54;;;;;;;2.33;2.13;;;15.20;99.90;;;;;;5050792;28;20024;-54
2023/05/07 05:00:19;;;;;;;2.70;2.50;;;15.20;99.90;;;;;;5049960;28;20036;-49
2023/05/07 05:02:45;;;;;;;2.60;2.40;;;15.20;99.90;;;;;;5051380;28;20040;-51
2023/05/07 05:05:11;;;;;;;2.28;2.10;;;15.30;99.90;;;;;;5051042;28;20036;-51
2023/05/07 05:07:37;;;;;;;6.30;2.47;;;15.30;99.90;;;;;;5050759;28;20397;-50
2023/05/07 05:10:03;;;;;;;3.63;2.38;;;15.40;99.90;;;;;;5051220;28;20017;-51
2023/05/07 05:12:30;;;;;;;4.03;2.60;;;15.30;99.90;;;;;;5051305;28;20032;-51
2023/05/07 05:14:55;;;;;;;2.15;2.03;;;15.30;99.90;;;;;;5051334;28;20388;-51
2023/05/07 05:17:21;;;;;;;5.32;2.33;;;15.30;99.90;;;;;;5049843;28;20096;-49
2023/05/07 05:19:46;;;;;;;2.45;2.25;;;15.40;99.90;;;;;;5051424;28;20485;-52
2023/05/07 05:22:12;;;;;;;2.67;2.40;;;15.40;99.90;;;;;;5050853;28;20033;-51
2023/05/07 05:24:37;;;;;;;3.45;2.10;;;15.40;99.90;;;;;;5053520;28;20136;-49
2023/05/07 05:27:03;;;;;;;2.97;2.38;;;15.40;99.90;;;;;;5076426;22;20051;-41
2023/05/07 05:29:28;;;;;;;3.30;2.70;;;15.50;99.90;;;;;;5054840;28;20044;-45
2023/05/07 05:31:54;;;;;;;2.70;2.50;;;15.50;99.90;;;;;;5036553;28;20063;-46
2023/05/07 05:34:19;;;;;;;6.05;2.55;;;15.50;99.90;;;;;;5054636;28;20032;-44
2023/05/07 05:36:45;;;;;;;8.75;2.55;;;15.50;99.90;;;;;;5054338;28;20028;-46
2023/05/07 05:39:11;;;;;;;5.93;2.50;;;15.40;99.90;;;;;;5054780;28;20192;-44
2023/05/07 05:41:36;;;;;;;2.65;2.45;;;15.50;99.90;;;;;;5054171;28;20148;-44
2023/05/07 05:44:02;;;;;;;3.28;2.20;;;15.50;99.90;;;;;;5054523;28;20510;-48
2023/05/07 05:46:27;;;;;;;8.63;2.53;;;15.60;99.90;;;;;;5054005;28;20453;-48
2023/05/07 05:48:53;;;;;;;2.72;2.40;;;15.60;99.90;;;;;;5054398;28;20452;-45
2023/05/07 05:51:18;;;;;;;4.95;1.85;;;15.70;99.90;;;;;;5053032;28;20021;-44
2023/05/07 05:53:44;;;;;;;4.35;2.33;;;15.70;99.90;;;;;;5054789;28;20017;-45
2023/05/07 05:56:10;;;;;;;5.57;2.30;;;15.70;99.90;;;;;;5035901;28;20484;-47
2023/05/07 05:58:35;;;;;;;7.28;2.40;;;15.80;99.90;;;;;;5054127;28;20025;-47
2023/05/07 06:01:02;;;;;;;3.75;2.08;;;15.80;99.90;;;;;;5034870;28;20443;-47
2023/05/07 06:03:28;;;;;;;6.75;2.33;;;16.00;99.90;;;;;;5054358;28;20480;-43
2023/05/07 06:05:53;;;;;;;2.75;2.55;;;16.10;99.90;;;;;;5054008;28;20039;-42
2023/05/07 06:08:19;;;;;;;3.53;2.30;;;16.20;99.90;;;;;;5053814;28;20025;-44
2023/05/07 06:10:45;;;;;;;2.30;2.10;;;16.20;99.90;;;;;;5053768;28;20096;-44
2023/05/07 06:13:10;;;;;;;1.80;1.75;;;16.30;99.90;;;;;;5036472;28;20464;-45
2023/05/07 06:15:36;;;;;;;2.38;2.17;;;16.30;99.90;;;;;;5053782;28;20040;-44
2023/05/07 06:18:02;;;;;;;2.33;2.13;;;16.30;99.90;;;;;;5035538;28;20342;-44
2023/05/07 06:20:27;;;;;;;2.55;2.25;;;16.40;99.90;;;;;;5053607;28;20104;-45
2023/05/07 06:22:53;;;;;;;2.10;2.00;;;16.40;99.90;;;;;;5053831;28;20029;-45
2023/05/07 06:25:18;;;;;;;2.53;1.92;;;16.40;99.90;;;;;;5053810;28;20040;-46
2023/05/07 06:27:44;;;;;;;4.43;2.40;;;16.30;99.90;;;;;;5053282;28;20060;-45
2023/05/07 06:30:10;;;;;;;2.22;2.10;;;16.30;99.90;;;;;;5052233;28;20370;-40
2023/05/07 06:32:36;;;;;;;2.67;2.05;;;16.30;99.90;;;;;;5053756;28;20035;-47
2023/05/07 06:35:02;;;;;;;3.75;2.40;;;16.40;99.90;;;;;;5052832;28;20032;-47
2023/05/07 06:37:27;;;;;;;2.53;1.90;;;16.40;99.90;;;;;;5053162;28;20495;-52
2023/05/07 06:39:53;;;;;;;4.28;2.42;;;16.40;99.90;;;;;;5053384;28;20079;-40
2023/05/07 06:42:19;;;;;;;2.40;2.20;;;16.40;99.90;;;;;;5053120;28;20075;-42
2023/05/07 06:44:44;;;;;;;2.70;2.13;;;16.40;99.90;;;;;;5053161;28;20033;-46
2023/05/07 06:47:10;;;;;;;2.67;2.47;;;16.40;99.90;;;;;;5053321;28;20017;-49
2023/05/07 06:49:35;;;;;;;3.58;2.33;;;16.40;99.90;;;;;;5053584;28;20017;-45
2023/05/07 06:52:01;;;;;;;4.75;2.47;;;16.40;99.90;;;;;;5053129;28;20744;-46
2023/05/07 06:54:26;;;;;;;2.33;2.13;;;16.50;99.90;;;;;;5053288;28;20056;-44
2023/05/07 06:56:52;;;;;;;3.97;2.22;;;16.50;99.90;;;;;;5052928;28;20062;-48
2023/05/07 06:59:19;;;;;;;3.60;2.42;;;16.50;99.90;;;;;;5052308;28;20025;-43
2023/05/07 07:01:44;;;;;;;3.28;2.53;;;16.40;99.90;;;;;;5053025;28;20025;-52
2023/05/07 07:04:10;;;;;;;4.38;2.67;;;16.40;99.90;;;;;;5034822;28;20078;-44
2023/05/07 07:06:35;;;;;;;2.72;2.35;;;16.40;99.90;;;;;;5051829;28;20113;-44
2023/05/07 07:09:01;;;;;;;2.33;2.13;;;16.50;99.90;;;;;;5053261;28;20444;-46
2023/05/07 07:11:26;;;;;;;2.50;2.30;;;16.50;99.90;;;;;;5052632;28;20047;-45
2023/05/07 07:13:54;;;;;;;3.22;2.42;;;16.50;99.90;;;;;;5052954;28;20671;-46
2023/05/07 07:16:20;;;;;;;2.30;2.20;;;16.60;99.90;;;;;;5052435;28;20476;-43
2023/05/07 07:18:45;;;;;;;3.60;2.28;;;16.60;99.90;;;;;;5052546;28;20108;-44
2023/05/07 07:21:11;;;;;;;2.67;2.47;;;16.60;99.90;;;;;;5052379;28;20107;-50
2023/05/07 07:23:36;;;;;;;2.50;2.30;;;16.60;99.90;;;;;;5052872;28;20103;-46
2023/05/07 07:26:02;;;;;;;2.17;1.80;;;16.70;99.90;;;;;;5052855;28;20040;-48
2023/05/07 07:28:27;;;;;;;2.53;2.28;;;16.80;99.90;;;;;;5034974;28;20028;-49
2023/05/07 07:30:53;;;;;;;3.42;2.65;;;16.80;99.90;;;;;;5052328;28;20021;-40
2023/05/07 07:33:18;;;;;;;2.80;2.58;;;16.90;99.90;;;;;;5052586;28;20088;-45
2023/05/07 07:35:44;;;;;;;2.92;2.47;;;16.90;99.90;;;;;;5052550;28;20156;-46
2023/05/07 07:38:10;;;;;;;3.17;2.20;;;16.90;99.90;;;;;;5051996;28;20025;-49
2023/05/07 07:40:35;;;;;;;4.30;2.42;;;16.90;99.90;;;;;;5051000;28;20029;-43
2023/05/07 07:43:01;;;;;;;5.63;2.53;;;16.90;99.90;;;;;;5052298;28;20097;-46
2023/05/07 07:45:27;;;;;;;2.70;2.50;;;17.00;99.90;;;;;;5051745;28;20051;-47
2023/05/07 07:47:52;;;;;;;6.28;2.40;;;17.00;99.90;;;;;;5051838;28;20108;-51
2023/05/07 07:50:18;;;;;;;2.63;2.42;;;17.00;99.90;;;;;;5034050;28;20070;-46
2023/05/07 07:52:44;;;;;;;4.13;2.95;;;17.00;99.90;;;;;;5052353;28;20070;-45
2023/05/07 07:55:09;;;;;;;5.57;2.20;;;16.90;99.90;;;;;;5052120;28;20024;-50
2023/05/07 07:57:35;;;;;;;3.10;2.75;;;17.00;99.90;;;;;;5051986;28;20035;-48
2023/05/07 08:00:01;;;;;;;3.40;2.25;;;17.00;99.90;;;;;;5051279;28;20377;-50
2023/05/07 08:02:26;;;;;;;4.03;2.50;;;17.10;99.90;;;;;;5053488;28;20416;-47
2023/05/07 08:04:51;;;;;;;6.13;2.25;;;17.10;99.90;;;;;;5050681;28;20020;-48
2023/05/07 08:07:20;;;;;;;4.55;2.17;;;17.20;99.90;;;;;;5051266;28;20514;-47
2023/05/07 08:09:46;;;;;;;2.60;1.90;;;17.20;99.90;;;;;;5040606;28;20029;-44
2023/05/07 08:12:11;;;;;;;2.85;2.65;;;17.30;99.90;;;;;;5048958;28;20111;-51
2023/05/07 08:14:37;;;;;;;4.63;2.97;;;17.20;99.90;;;;;;5049299;28;20527;-46
2023/05/07 08:17:03;;;;;;;4.90;2.53;;;17.40;99.90;;;;;;5053039;28;20293;-50
2023/05/07 08:19:28;;;;;;;3.70;2.70;;;17.30;99.90;;;;;;5051718;28;20106;-46
2023/05/07 08:21:55;;;;;;;4.00;2.75;;;17.40;99.90;;;;;;5051002;28;20048;-46
2023/05/07 08:24:20;;;;;;;2.95;2.70;;;17.50;99.90;;;;;;5051108;28;20041;-45
2023/05/07 08:26:45;;;;;;;4.05;2.03;;;17.50;99.90;;;;;;5050600;28;20060;-48
2023/05/07 08:29:11;;;;;;;4.38;3.00;;;17.60;99.90;;;;;;5050200;28;20503;-46
2023/05/07 08:31:38;;;;;;;2.67;2.47;;;17.60;99.90;;;;;;5051023;28;20025;-50
2023/05/07 08:34:04;;;;;;;3.92;3.15;;;17.60;99.90;;;;;;5039569;28;20414;-52
2023/05/07 08:36:29;;;;;;;3.22;2.92;;;17.60;99.90;;;;;;5050358;28;20089;-43
2023/05/07 08:38:55;;;;;;;3.00;2.75;;;17.60;99.90;;;;;;5051331;28;20033;-46
2023/05/07 08:41:21;;;;;;;10.30;2.90;;;17.70;99.90;;;;;;5070784;28;20396;-45
2023/05/07 08:43:50;;;;;;;5.55;2.88;;;17.70;99.90;;;;;;5070821;28;20035;-45
2023/05/07 08:46:19;;;;;;;3.58;2.80;;;17.80;99.90;;;;;;5058851;28;20029;-48
2023/05/07 08:48:45;;;;;;;3.40;2.80;;;17.90;99.90;;;;;;5051112;28;20396;-49
2023/05/07 08:51:16;;;;;;;3.40;2.47;;;18.00;99.90;;;;;;5050655;28;20025;-48
2023/05/07 08:53:41;;;;;;;3.05;2.80;;;18.00;99.90;;;;;;5050650;28;20599;-52
2023/05/07 08:56:08;;;;;;;3.63;2.65;;;18.10;99.90;;;;;;5051086;28;20041;-51
2023/05/07 08:58:34;;;;;;;3.30;2.22;;;18.20;99.90;;;;;;5053440;28;20404;-49
2023/05/07 09:01:09;;;;;;;4.28;2.53;;;18.20;99.90;;;;;;5054734;28;20029;-44
2023/05/07 09:03:36;;;;;;;3.25;2.95;;;18.30;99.90;;;;;;5052442;28;20029;-49
2023/05/07 09:06:02;;;;;;;5.18;3.15;;;18.40;99.90;;;;;;5054747;28;20542;-50
2023/05/07 09:08:29;;;;;;;2.97;2.78;;;18.40;99.90;;;;;;5054193;28;20033;-49
2023/05/07 09:10:54;;;;;;;3.88;2.70;;;18.40;99.90;;;;;;5054819;28;20443;-46
2023/05/07 09:13:20;;;;;;;3.80;2.75;;;18.60;99.90;;;;;;5054765;28;20017;-49
2023/05/07 09:15:45;;;;;;;3.53;2.67;;;18.60;99.90;;;;;;5036764;28;20425;-44
2023/05/07 09:18:12;;;;;;;2.90;2.50;;;18.70;99.90;;;;;;5034215;28;20047;-45
2023/05/07 09:20:38;;;;;;;3.10;2.78;;;18.60;99.90;;;;;;5034536;28;20030;-46
2023/05/07 09:23:03;;;;;;;3.95;3.20;;;18.70;99.90;;;;;;5049218;28;20029;-43
2023/05/07 09:25:31;;;;;;;3.20;2.88;;;18.80;99.90;;;;;;5054194;28;20036;-46
2023/05/07 09:27:56;;;;;;;5.47;2.95;;;18.80;99.90;;;;;;5047860;28;20450;-45
2023/05/07 09:30:22;;;;;;;4.10;2.80;;;18.90;99.90;;;;;;5034300;28;20101;-48
2023/05/07 09:32:47;;;;;;;4.15;3.10;;;18.90;99.90;;;;;;5034344;28;20032;-45
2023/05/07 09:35:17;;;;;;;2.85;2.47;;;18.90;99.90;;;;;;5035489;28;20500;-45
2023/05/07 09:37:43;;;;;;;5.10;2.45;;;19.00;99.90;;;;;;5053625;28;20047;-45
2023/05/07 09:40:24;;;;;;;3.53;2.95;;;19.20;99.90;;;;;;5053893;28;20029;-48
2023/05/07 09:42:50;;;;;;;3.05;2.85;;;19.40;99.90;;;;;;5052838;28;20166;-52
2023/05/07 09:45:21;;;;;;;4.93;2.85;;;19.50;99.90;;;;;;5045923;28;20036;-47
2023/05/07 09:47:49;;;;;;;2.90;2.70;;;19.60;99.90;;;;;;5034002;28;20021;-49
2023/05/07 09:50:16;;;;;;;3.80;2.97;;;19.80;99.90;;;;;;5054194;28;20082;-50
2023/05/07 09:52:43;;;;;;;3.05;2.85;;;19.90;99.90;;;;;;5054386;28;20028;-46
2023/05/07 09:55:10;;;;;;;3.90;3.25;;;19.90;99.90;;;;;;5052803;28;20407;-48
2023/05/07 09:57:36;;;;;;;3.70;2.70;;;20.00;99.90;;;;;;5059164;28;20032;-47
2023/05/07 10:00:06;;;;;;;5.30;2.65;;;20.00;99.90;;;;;;5054005;28;20473;-45
2023/05/07 10:02:34;;;;;;;2.97;2.78;;;20.10;99.90;;;;;;5043654;28;20108;-46
2023/05/07 10:05:01;;;;;;;2.80;2.60;;;20.20;99.90;;;;;;5035346;28;20032;-45
2023/05/07 10:07:28;;;;;;;2.92;2.70;;;20.10;99.90;;;;;;5032405;28;20056;-48
2023/05/07 10:09:54;;;;;;;4.32;2.95;;;20.00;99.90;;;;;;5051622;28;20504;-44
2023/05/07 10:12:20;;;;;;;3.25;3.03;;;20.10;99.90;;;;;;5051191;28;20378;-47
2023/05/07 10:14:48;;;;;;;3.00;2.80;;;20.10;99.90;;;;;;5058735;28;20028;-50
2023/05/07 10:17:16;;;;;;;4.25;3.22;;;20.10;99.90;;;;;;5053736;28;20032;-49
2023/05/07 10:19:44;;;;;;;4.35;3.28;;;20.10;99.90;;;;;;5053486;28;20092;-48
2023/05/07 10:22:10;;;;;;;4.78;3.22;;;20.30;99.90;;;;;;5052863;28;20102;-46
2023/05/07 10:24:37;;;;;;;3.42;3.13;;;20.40;99.90;;;;;;5036381;28;20043;-52
2023/05/07 10:27:08;;;;;;;4.15;2.75;;;20.30;99.90;;;;;;5057151;28;20082;-49
2023/05/07 10:29:54;;;;;;;2.90;2.70;;;20.30;99.90;;;;;;5052625;28;20032;-50
2023/05/07 10:32:33;;;;;;;2.70;2.50;;;20.50;99.90;;;;;;5038320;28;20037;-51
2023/05/07 10:35:02;;;;;;;5.07;3.13;;;20.50;99.90;;;;;;5050027;28;20033;-49
2023/05/07 10:37:28;;;;;;;3.95;2.70;;;20.60;99.90;;;;;;5052276;28;20487;-45
2023/05/07 10:39:54;;;;;;;3.20;2.90;;;20.70;99.90;;;;;;5053116;28;20116;-45
2023/05/07 10:42:20;;;;;;;6.35;2.78;;;20.80;99.90;;;;;;5052855;28;20159;-44
2023/05/07 10:44:46;;;;;;;42.22;28.98;;;20.90;99.90;;;;;;5053065;28;20040;-44
2023/05/07 10:47:13;;;;;;;3.95;3.45;;;21.10;99.90;;;;;;5051375;28;20025;-45
2023/05/07 10:49:45;;;;;;;5.70;2.75;;;21.20;99.90;;;;;;5052972;28;20519;-52
2023/05/07 10:52:25;;;;;;;6.10;3.17;;;21.20;99.90;;;;;;5051836;28;20035;-48
2023/05/07 10:55:21;;;;;;;4.32;3.17;;;21.10;99.90;;;;;;5053157;28;20436;-51
2023/05/07 10:57:46;;;;;;;2.67;2.47;;;21.20;99.90;;;;;;5053187;28;20448;-47
2023/05/07 11:00:24;;;;;;;3.35;3.00;;;21.30;99.90;;;;;;5052856;28;20060;-45
2023/05/07 11:02:59;;;;;;;4.43;2.55;;;21.30;99.90;;;;;;5052706;28;20116;-47
2023/05/07 11:05:25;;;;;;;5.63;2.60;;;21.40;99.90;;;;;;5051606;28;20029;-45
2023/05/07 11:07:57;;;;;;;3.17;2.58;;;21.50;99.90;;;;;;5052625;28;20116;-48
2023/05/07 11:10:23;;;;;;;4.10;3.00;;;21.50;99.90;;;;;;5052289;28;20547;-48
2023/05/07 11:12:50;;;;;;;2.80;2.60;;;21.50;99.90;;;;;;5052183;28;20029;-48
2023/05/07 11:15:42;;;;;;;3.75;2.70;;;21.50;99.90;;;;;;5052599;28;20029;-50
2023/05/07 11:18:09;;;;;;;3.00;2.20;;;21.60;99.90;;;;;;5048117;28;20547;-50
2023/05/07 11:20:43;;;;;;;2.47;2.28;;;21.60;99.90;;;;;;5050197;28;20507;-45
2023/05/07 11:23:35;;;;;;;2.65;2.45;;;21.80;99.90;;;;;;5052141;28;20039;-48
2023/05/07 11:26:06;;;;;;;4.10;2.38;;;22.00;99.70;;;;;;5051515;28;20025;-52
2023/05/07 11:28:43;;;;;;;2.38;2.17;;;22.00;98.80;;;;;;5061938;22;20053;-51
2023/05/07 11:31:10;;;;;;;2.33;2.10;;;22.00;98.80;;;;;;5052216;28;20025;-55
2023/05/07 11:33:37;;;;;;;2.83;2.58;;;22.00;99.10;;;;;;5044101;28;20655;-47
2023/05/07 11:36:04;;;;;;;4.03;2.10;;;22.00;98.60;;;;;;5035681;28;20025;-50
2023/05/07 11:38:37;;;;;;;4.57;2.17;;;22.00;98.30;;;;;;5043726;28;20031;-54
2023/05/07 11:41:04;;;;;;;2.10;1.98;;;22.00;98.60;;;;;;5062276;28;20036;-51
2023/05/07 11:43:30;;;;;;;1.92;1.83;;;21.90;99.00;;;;;;5059886;28;20496;-56
2023/05/07 11:46:08;;;;;;;27.40;19.85;;;22.00;98.80;;;;;;5079276;28;20482;-53
2023/05/07 11:48:34;;;;;;;9.52;8.02;;;22.00;99.30;;;;;;5059202;28;20044;-54
2023/05/07 11:51:08;;;;;;;2.35;1.98;;;22.20;97.80;;;;;;5060079;28;20025;-52
2023/05/07 11:53:39;;;;;;;2.75;2.20;;;22.20;97.40;;;;;;5061896;28;20021;-56
2023/05/07 11:56:12;;;;;;;2.88;2.00;;;22.20;97.80;;;;;;5040465;28;20033;-49
2023/05/07 11:58:39;;;;;;;1.92;1.83;;;22.30;97.80;;;;;;5053243;28;20025;-51
2023/05/07 12:01:08;;;;;;;3.05;1.80;;;22.30;97.80;;;;;;5058141;28;20102;-59
2023/05/07 12:03:33;;;;;;;4.38;2.30;;;22.40;98.20;;;;;;5021563;28;20047;-52
2023/05/07 12:06:00;;;;;;;3.20;2.22;;;22.50;97.50;;;;;;5054690;28;20032;-55
2023/05/07 12:08:25;;;;;;;4.03;1.95;;;22.60;97.00;;;;;;5056408;28;20215;-49
2023/05/07 12:10:51;;;;;;;2.10;1.98;;;22.60;97.20;;;;;;5069641;28;20025;-52
2023/05/07 12:13:18;;;;;;;3.13;2.33;;;22.70;97.50;;;;;;5058543;28;20029;-54
2023/05/07 12:15:44;;;;;;;3.10;2.72;;;22.80;96.90;;;;;;5055460;28;20049;-52
2023/05/07 12:18:11;;;;;;;3.15;1.88;;;22.80;96.40;;;;;;5064431;28;20404;-55
2023/05/07 12:20:37;;;;;;;1.80;1.70;;;22.80;96.40;;;;;;5078741;28;20060;-55
2023/05/07 12:23:03;;;;;;;4.05;1.92;;;22.90;96.20;;;;;;5062343;28;20042;-55
2023/05/07 12:25:34;;;;;;;4.38;1.70;;;22.90;95.80;;;;;;5059001;28;20410;-52
2023/05/07 12:28:01;;;;;;;1.92;1.80;;;22.90;95.10;;;;;;5076253;28;20027;-54
2023/05/07 12:30:26;;;;;;;4.18;1.10;;;23.00;94.70;;;;;;5052371;28;20016;-51
2023/05/07 12:32:55;;;;;;;1.50;1.40;;;22.80;91.70;;;;;;5054122;28;20442;-54
2023/05/07 12:35:28;;;;;;;2.05;1.67;;;22.90;93.50;;;;;;5055422;28;20057;-50
2023/05/07 12:38:04;;;;;;;3.50;1.65;;;23.00;94.20;;;;;;5052160;28;20094;-51
2023/05/07 12:40:42;;;;;;;3.13;1.85;;;23.00;95.20;;;;;;5053254;28;20040;-55
2023/05/07 12:43:24;;;;;;;43.28;32.65;;;22.90;94.30;;;;;;5058569;28;20025;-50